Flight Track Log - Related Links

Times and Time Zones

All times are in EDT time to prevent confusion due to time zone crossing. See the UAL326 flight status page for this flight to view local times or setup timezone preferences in your user account.

Time Position Orientation Groundspeed Altitude Reporting Facility
EDT Latitude Longitude Course Direction KTS MPH feet Rate Location/Type
Sun 02:01:39 PM 28.4000 -81.3167 350° North 164 189 1,400  Level Orlando TRACON
Sun 02:02:27 PM 28.3667 -81.2833 139° Southeast 219 252 2,600 2,278 Climbing Orlando TRACON
Sun 02:03:27 PM 28.3333 -81.2167 120° Southeast 283 326 5,500 3,074 Climbing Orlando TRACON
Sun 02:04:00 PM 28.8000 -81.3500 North  Level FlightAware Approximate
Sun 02:04:28 PM 28.4000 -81.1667 33° Northeast 279 321 8,800  Level Orlando TRACON
Sun 02:05:00 PM 28.9306 -81.3597 355° North  Level FlightAware Approximate
Sun 02:06:00 PM 29.0605 -81.3788 350° North  Level FlightAware Approximate
Sun 02:06:52 PM 28.5836 -81.2258 344° North 309 356 13,800  Level Jacksonville Center
Sun 02:07:52 PM 28.6822 -81.2572 344° North 336 387 15,500 2,150 Climbing Jacksonville Center
Sun 02:08:52 PM 28.7783 -81.2867 345° North 355 409 18,100 2,200 Climbing Jacksonville Center
Sun 02:09:52 PM 28.8792 -81.3206 344° North 361 415 19,900 1,700 Climbing Jacksonville Center
Sun 02:10:52 PM 28.9858 -81.3519 346° North 373 429 21,500 1,500 Climbing Jacksonville Center
Sun 02:11:52 PM 29.0906 -81.3861 344° North 385 443 22,900 1,563 Climbing Jacksonville Center
Sun 02:12:51 PM 29.2078 -81.4008 354° North 396 456 24,600 1,714 Climbing Jacksonville Center
Sun 02:13:51 PM 29.3247 -81.4111 356° North 410 472 26,300 1,488 Climbing Jacksonville Center
Sun 02:14:52 PM 29.4458 -81.4211 356° North 423 487 27,600 1,140 Climbing Jacksonville Center
Sun 02:15:52 PM 29.5672 -81.4361 354° North 429 494 28,600 1,250 Climbing Jacksonville Center
Sun 02:16:52 PM 29.6906 -81.4486 355° North 439 505 30,100 1,300 Climbing Jacksonville Center
Sun 02:17:52 PM 29.8158 -81.4611 355° North 445 512 31,200 1,100 Climbing Jacksonville Center
Sun 02:18:52 PM 29.9456 -81.4736 355° North 445 512 32,300 1,150 Climbing Jacksonville Center
Sun 02:19:52 PM 30.0686 -81.4836 356° North 445 512 33,500 1,250 Climbing Jacksonville Center
Sun 02:20:52 PM 30.1942 -81.4964 355° North 445 512 34,800 1,100 Climbing Jacksonville Center
Sun 02:21:52 PM 30.3175 -81.5064 356° North 445 512 35,700 1,008 Climbing Jacksonville Center
Sun 02:22:51 PM 30.4594 -81.4997 North 451 519 36,800 655 Climbing Jacksonville Center
Sun 02:23:51 PM 30.5867 -81.4906 North 457 526 37,000 50 Climbing Jacksonville Center
Sun 02:24:51 PM 30.7139 -81.4814 North 457 526 36,900  Descending Jacksonville Center
Sun 02:25:52 PM 30.8389 -81.4700 North 457 526 37,000 50 Climbing Jacksonville Center
Sun 02:26:51 PM 30.9683 -81.4631 North 457 526 37,000  Level Jacksonville Center
Sun 02:27:51 PM 31.0953 -81.4297 13° North 457 526 37,000  Level Jacksonville Center
Sun 02:28:52 PM 31.2197 -81.3622 25° Northeast 477 549 37,000 -50 Level Jacksonville Center
Sun 02:29:52 PM 31.3464 -81.2992 23° Northeast 477 549 36,900  Descending Jacksonville Center
Sun 02:30:52 PM 31.4644 -81.2267 28° Northeast 477 549 37,000 50 Climbing Jacksonville Center
Sun 02:31:52 PM 31.5744 -81.1661 25° Northeast 482 555 37,000  Level Jacksonville Center
Sun 02:32:52 PM 31.7092 -81.0928 25° Northeast 477 549 37,000  Level Jacksonville Center
Sun 02:33:52 PM 31.8314 -81.0269 25° Northeast 482 555 37,000  Level Jacksonville Center
Sun 02:34:52 PM 31.9389 -80.9658 26° Northeast 482 555 37,000  Level Jacksonville Center
Sun 02:35:51 PM 32.0756 -80.8919 25° Northeast 482 555 37,000  Level Jacksonville Center
Sun 02:36:52 PM 32.1833 -80.8331 25° Northeast 482 555 37,000  Level Jacksonville Center
Sun 02:37:52 PM 32.3136 -80.7589 26° Northeast 472 543 37,000 -50 Level Jacksonville Center
Sun 02:38:52 PM 32.4231 -80.6997 25° Northeast 477 549 36,900 -50 Descending Jacksonville Center
Sun 02:39:52 PM 32.5431 -80.6303 26° Northeast 477 549 36,900 50 Level Jacksonville Center
Sun 02:40:52 PM 32.6650 -80.5606 26° Northeast 477 549 37,000 50 Climbing Jacksonville Center
Sun 02:41:52 PM 32.7847 -80.4933 25° Northeast 477 549 37,000  Level Jacksonville Center
Sun 02:42:52 PM 32.9067 -80.4258 25° Northeast 477 549 37,000  Level Jacksonville Center
Sun 02:43:52 PM 33.0261 -80.3556 26° Northeast 482 555 37,000  Level Jacksonville Center
Sun 02:44:52 PM 33.1522 -80.2850 25° Northeast 477 549 37,000  Level Jacksonville Center
Sun 02:45:52 PM 33.2739 -80.2169 25° Northeast 482 555 37,000  Level Jacksonville Center
Sun 02:46:52 PM 33.3953 -80.1461 26° Northeast 482 555 37,000 -50 Level Jacksonville Center
Sun 02:47:52 PM 33.5192 -80.0750 26° Northeast 477 549 36,900 -50 Descending Jacksonville Center
Sun 02:48:52 PM 33.6406 -80.0036 26° Northeast 477 549 36,900 50 Level Jacksonville Center
Sun 02:49:52 PM 33.7622 -79.9347 25° Northeast 477 549 37,000 50 Climbing Jacksonville Center
Sun 02:50:52 PM 33.8844 -79.9031 12° North 450 518 37,000  Level Jacksonville Center
Sun 02:51:52 PM 33.9775 -79.9550 335° Northwest 389 448 37,000  Level Jacksonville Center
Sun 02:52:52 PM 34.0339 -80.0483 306° West 332 382 37,000 -50 Level Jacksonville Center
Sun 02:53:52 PM 34.1311 -80.1028 335° Northwest 344 396 36,900  Descending Jacksonville Center
Sun 02:54:52 PM 34.2533 -80.0614 16° North 382 440 37,000 36 Climbing Jacksonville Center
Sun 02:56:40 PM 34.4756 -79.9125 29° Northeast 453 521 37,000  Level Washington Center
Sun 02:57:41 PM 34.5931 -79.8328 29° Northeast 474 545 37,000  Level Washington Center
Sun 02:58:41 PM 34.7106 -79.7556 28° Northeast 474 545 37,000  Level Washington Center
Sun 02:59:41 PM 34.8322 -79.6783 28° Northeast 479 551 37,000  Level Washington Center
Sun 03:00:39 PM 34.9517 -79.5983 29° Northeast 479 551 37,000  Level Washington Center
Sun 03:01:40 PM 35.0714 -79.5178 29° Northeast 485 558 37,000  Level Washington Center
Sun 03:02:41 PM 35.1908 -79.4397 28° Northeast 485 558 37,000 -400 Level Washington Center
Sun 03:03:40 PM 35.3100 -79.3617 28° Northeast 485 558 36,200 -908 Descending Washington Center
Sun 03:04:40 PM 35.4336 -79.2808 28° Northeast 489 563 35,200 -992 Descending Washington Center
Sun 03:05:41 PM 35.5508 -79.2019 29° Northeast 489 563 34,200 -1,008 Descending Washington Center
Sun 03:06:39 PM 35.6658 -79.1228 29° Northeast 489 563 33,200 -958 Descending Washington Center
Sun 03:07:40 PM 35.7850 -79.0436 28° Northeast 489 563 32,300 -934 Descending Washington Center
Sun 03:08:41 PM 35.8978 -78.9689 28° Northeast 479 551 31,300 -1,279 Descending Washington Center
Sun 03:09:42 PM 36.0128 -78.8867 30° Northeast 474 545 29,700 -1,765 Descending Washington Center
Sun 03:10:40 PM 36.1275 -78.8117 28° Northeast 467 537 27,800 -1,361 Descending Washington Center
Sun 03:11:41 PM 36.2464 -78.7289 29° Northeast 472 543 27,000 -397 Descending Washington Center
Sun 03:12:41 PM 36.3697 -78.6436 29° Northeast 490 564 27,000  Level Washington Center
Sun 03:13:41 PM 36.4906 -78.5606 29° Northeast 495 570 27,000  Level Washington Center
Sun 03:14:40 PM 36.6139 -78.4747 29° Northeast 495 570 27,000 -650 Level Washington Center
Sun 03:15:41 PM 36.7369 -78.3883 29° Northeast 495 570 25,700 -1,388 Descending Washington Center
Sun 03:16:41 PM 36.8556 -78.3044 30° Northeast 495 570 24,200 -1,475 Descending Washington Center
Sun 03:17:39 PM 36.9636 -78.2278 30° Northeast 495 570 22,800 -1,109 Descending Washington Center
Sun 03:18:40 PM 37.0886 -78.1408 29° Northeast 485 558 22,000 -689 Descending Washington Center
Sun 03:19:41 PM 37.2008 -78.0611 29° Northeast 472 543 21,400 -496 Descending Washington Center
Sun 03:20:41 PM 37.3153 -77.9814 29° Northeast 460 529 21,000 -198 Descending Washington Center
Sun 03:21:42 PM 37.4317 -77.8958 30° Northeast 467 537 21,000  Level Washington Center
Sun 03:22:42 PM 37.5519 -77.8158 28° Northeast 474 545 21,000 -1,068 Level Washington Center
Sun 03:23:40 PM 37.6742 -77.7433 25° Northeast 474 545 18,900 -2,600 Descending Washington Center
Sun 03:24:42 PM 37.7964 -77.6731 24° Northeast 474 545 15,800 -2,803 Descending Washington Center
Sun 03:25:42 PM 37.9125 -77.6028 26° Northeast 468 539 13,200 -2,339 Descending Washington Center
Sun 03:26:40 PM 38.0178 -77.5422 24° Northeast 446 513 11,200 -1,311 Descending Washington Center
Sun 03:27:41 PM 38.0978 -77.4967 24° Northeast 392 451 10,600 -541 Descending Washington Center
Sun 03:28:42 PM 38.1756 -77.4539 23° Northeast 338 389 10,100 -303 Descending Washington Center
Sun 03:29:40 PM 38.2553 -77.4108 23° Northeast 312 359 10,000 -454 Descending Washington Center
Sun 03:30:41 PM 38.3278 -77.4417 342° North 279 321 9,200 -1,377 Descending Washington Center
Sun 03:31:42 PM 38.4006 -77.4700 343° North 264 304 7,200 -1,289 Descending Washington Center
Sun 03:32:42 PM 38.4756 -77.4694 360° North 269 310 6,600 -763 Descending Washington Center
Sun 03:33:40 PM 38.5403 -77.4683 North 254 292 5,700 -807 Descending Washington Center
Sun 03:34:41 PM 38.6006 -77.4672 North 229 264 5,000 -512 Descending Washington Center
Sun 03:35:02 PM 38.6333 -77.4667 North 223 257 5,000  Level Potomac TRACON
Sun 03:36:08 PM 38.7000 -77.4667 360° North 204 235 5,000 -476 Level Potomac TRACON
Sun 03:37:08 PM 38.7500 -77.4667 360° North 190 219 4,000 -1,000 Descending Potomac TRACON

Login

Don't have an account? Register now (free) for customized features, flight alerts, and more!